Time;durP1;ratioP1;P1;durP2;ratioP2;P2;SDS_P1;SDS_P2;PMS_P1;PMS_P2;Temp;Humidity;BMP_temperature;BMP_pressure;BME280_temperature;BME280_humidity;BME280_pressure;Samples;Min_cycle;Max_cycle;Signal;HPM_P1;HPM_P2
2022/01/14 00:02:05;;;;;;;27.80;8.80;;;;;;;7.01;64.58;103736.78;4989661;28;124413;-69
2022/01/14 00:04:32;;;;;;;26.85;8.77;;;;;;;7.01;64.87;103726.25;4990702;28;123831;-69
2022/01/14 00:06:59;;;;;;;24.90;7.95;;;;;;;7.00;64.34;103731.50;4986029;28;115401;-69
2022/01/14 00:09:27;;;;;;;24.05;8.35;;;;;;;6.98;64.51;103735.84;4988603;28;113738;-69
2022/01/14 00:11:59;;;;;;;26.50;8.35;;;;;;;6.96;64.70;103737.59;4989060;28;124706;-70
2022/01/14 00:14:40;;;;;;;22.90;8.15;;;;;;;6.94;64.42;103728.78;4985682;28;124164;-70
2022/01/14 00:17:09;;;;;;;25.67;8.52;;;;;;;6.92;64.44;103726.09;4988436;28;113621;-70
2022/01/14 00:19:37;;;;;;;23.38;8.48;;;;;;;6.93;64.73;103727.88;4989319;28;113535;-70
2022/01/14 00:22:10;;;;;;;19.85;8.85;;;;;;;6.93;64.52;103719.06;4989618;28;123817;-70
2022/01/14 00:31:41;;;;;;;28.52;8.93;;;;;;;6.94;64.71;103723.50;4986672;28;124348;-70
2022/01/14 00:33:16;;;;;;;32.55;9.25;;;;;;;6.86;64.42;103719.88;4991277;28;122514;-70
2022/01/14 00:35:43;;;;;;;25.50;9.13;;;;;;;6.87;64.88;103713.72;4991434;28;124216;-71
2022/01/14 00:38:12;;;;;;;26.23;8.82;;;;;;;6.87;64.56;103705.81;4992153;28;114261;-69
2022/01/14 00:40:40;;;;;;;26.27;8.98;;;;;;;6.87;64.73;103711.97;4994739;28;114259;-69
2022/01/14 00:43:08;;;;;;;24.00;8.15;;;;;;;6.88;64.65;103707.59;4995682;28;123530;-70
2022/01/14 00:45:36;;;;;;;23.77;8.40;;;;;;;6.90;64.86;103705.88;5000121;28;123908;-69
2022/01/14 00:48:04;;;;;;;26.58;8.68;;;;;;;6.90;64.80;103700.59;5000965;28;114592;-69
2022/01/14 00:50:33;;;;;;;27.90;8.52;;;;;;;6.91;64.58;103694.47;5020288;28;115369;-70
2022/01/14 00:53:01;;;;;;;23.40;8.15;;;;;;;6.90;64.89;103690.94;5005062;28;123303;-70
2022/01/14 00:55:39;;;;;;;27.65;8.20;;;;;;;6.91;64.61;103697.09;5007781;28;123375;-69
2022/01/14 01:00:52;;;;;;;28.15;8.60;;;;;;;6.90;64.58;103684.78;4993200;28;113605;-70
2022/01/14 01:03:20;;;;;;;28.45;8.38;;;;;;;6.91;64.82;103686.56;4989786;28;124116;-69
2022/01/14 01:05:47;;;;;;;23.73;7.75;;;;;;;6.91;64.88;103681.28;4993123;28;123950;-70
2022/01/14 01:08:20;;;;;;;27.77;8.32;;;;;;;6.90;64.62;103684.78;4990241;28;112771;-70
2022/01/14 01:10:49;;;;;;;25.77;8.25;;;;;;;6.91;64.54;103686.56;4995947;28;112910;-70
2022/01/14 01:13:38;;;;;;;31.35;8.73;;;;;;;6.91;64.65;103686.56;4991239;28;123606;-70
2022/01/14 01:16:05;;;;;;;25.05;8.48;;;;;;;6.93;64.54;103684.81;4987026;28;123838;-70
2022/01/14 01:18:32;;;;;;;25.25;8.20;;;;;;;6.93;64.42;103679.56;4971794;28;114158;-70
2022/01/14 01:21:01;;;;;;;26.33;8.13;;;;;;;6.94;64.82;103681.34;4988079;28;114186;-69
2022/01/14 01:23:28;;;;;;;23.02;8.05;;;;;;;6.93;65.00;103685.75;4989042;28;123921;-69
2022/01/14 01:26:11;;;;;;;22.25;8.02;;;;;;;6.92;64.56;103678.69;5003080;28;122988;-70
2022/01/14 01:28:52;;;;;;;23.50;7.63;;;;;;;6.91;64.92;103676.00;4987478;28;114797;-68
2022/01/14 01:31:35;;;;;;;26.40;7.50;;;;;;;6.92;64.86;103683.06;4987059;28;114493;-69
2022/01/14 01:34:04;;;;;;;26.95;7.55;;;;;;;6.91;64.66;103670.75;4987516;28;123536;-69
2022/01/14 01:36:32;;;;;;;25.35;7.60;;;;;;;6.89;64.61;103677.75;4987877;28;123779;-69
2022/01/14 01:39:00;;;;;;;24.58;7.68;;;;;;;6.89;64.43;103678.63;4988088;28;115524;-70
2022/01/14 01:41:28;;;;;;;22.77;7.70;;;;;;;6.90;64.74;103674.25;4988391;28;114705;-69
2022/01/14 01:43:55;;;;;;;26.38;7.45;;;;;;;6.90;64.63;103674.25;4985353;28;124186;-70
2022/01/14 01:46:23;;;;;;;31.80;8.18;;;;;;;6.91;64.68;103668.09;4987941;28;123665;-70
2022/01/14 01:48:51;;;;;;;22.15;7.75;;;;;;;6.91;64.77;103665.47;4988188;28;114124;-69
2022/01/14 01:51:21;;;;;;;21.88;7.28;;;;;;;6.91;64.65;103665.47;4987637;28;113890;-69
2022/01/14 01:53:48;;;;;;;19.63;7.63;;;;;;;6.91;64.94;103671.66;4987425;28;123985;-70
2022/01/14 01:56:17;;;;;;;20.80;7.03;;;;;;;6.90;64.56;103669.00;4986041;28;122783;-69
2022/01/14 01:58:44;;;;;;;15.93;6.75;;;;;;;6.91;64.75;103676.00;4992310;28;114271;-69
2022/01/14 02:01:11;;;;;;;18.60;7.20;;;;;;;6.93;64.57;103676.91;4992249;28;114851;-70
2022/01/14 02:03:39;;;;;;;15.57;7.03;;;;;;;6.93;64.52;103674.28;4990777;28;123524;-70
2022/01/14 02:06:07;;;;;;;21.42;7.18;;;;;;;6.93;64.77;103669.94;4999435;28;124543;-70
2022/01/14 02:08:34;;;;;;;17.95;7.18;;;;;;;6.94;64.77;103670.81;4994438;28;113899;-69
2022/01/14 02:11:01;;;;;;;16.60;7.43;;;;;;;6.95;64.53;103677.81;5002217;28;113480;-69
2022/01/14 02:13:30;;;;;;;19.88;7.13;;;;;;;6.95;64.80;103677.81;4991997;28;124064;-70
2022/01/14 02:16:16;;;;;;;18.42;7.40;;;;;;;6.94;64.77;103670.81;4989397;28;124728;-69
2022/01/14 02:27:12;;;;;;;16.75;7.45;;;;;;;6.94;64.57;103674.31;4988007;28;123540;-69
2022/01/14 02:29:39;;;;;;;22.88;7.78;;;;;;;6.95;64.59;103672.56;4994793;28;115505;-70
2022/01/14 02:32:07;;;;;;;20.00;7.38;;;;;;;6.97;64.70;103665.59;4989716;28;113867;-69
2022/01/14 02:34:37;;;;;;;22.30;7.47;;;;;;;6.97;64.57;103665.59;4989373;28;124223;-69
2022/01/14 02:37:05;;;;;;;25.13;7.30;;;;;;;6.98;64.51;103662.09;4990884;28;123798;-69
2022/01/14 02:39:32;;;;;;;19.50;6.93;;;;;;;6.96;64.60;103659.41;4989677;28;114654;-69
2022/01/14 02:42:00;;;;;;;17.13;6.88;;;;;;;6.98;64.68;103654.19;4990061;28;114461;-69
2022/01/14 02:44:29;;;;;;;18.13;7.40;;;;;;;6.97;64.78;103660.31;4989207;28;123359;-69
2022/01/14 02:46:58;;;;;;;19.48;7.40;;;;;;;6.97;64.48;103655.06;4992953;28;123743;-69
2022/01/14 02:49:30;;;;;;;19.77;7.57;;;;;;;6.98;64.79;103643.63;4991387;28;114992;-69
2022/01/14 02:51:58;;;;;;;21.33;7.03;;;;;;;6.97;64.56;103644.50;4984439;28;113870;-69
2022/01/14 02:54:39;;;;;;;24.80;7.30;;;;;;;6.97;64.57;103636.63;4990057;28;123853;-69
2022/01/14 02:57:09;;;;;;;18.33;6.75;;;;;;;6.98;64.50;103630.47;4987996;28;124319;-69
2022/01/14 02:59:39;;;;;;;20.98;7.53;;;;;;;6.98;64.69;103630.47;4984743;28;114350;-69
2022/01/14 03:02:09;;;;;;;24.48;8.43;;;;;;;6.97;64.40;103629.59;4988737;28;114058;-70
2022/01/14 03:04:41;;;;;;;15.93;6.80;;;;;;;6.98;64.37;103620.78;4988339;28;124182;-69
2022/01/14 03:07:08;;;;;;;22.85;6.70;;;;;;;6.98;64.62;103614.66;4985549;28;124351;-69
2022/01/14 03:09:37;;;;;;;15.45;6.55;;;;;;;6.98;64.53;103625.19;4990459;28;114289;-69
2022/01/14 03:12:06;;;;;;;18.65;7.00;;;;;;;6.95;64.40;103623.41;4991519;28;114556;-69
2022/01/14 03:14:33;;;;;;;19.35;6.47;;;;;;;6.93;64.49;103616.31;4991391;28;123653;-69
2022/01/14 03:17:01;;;;;;;21.10;7.43;;;;;;;6.90;64.66;103611.03;4999738;28;123019;-68
2022/01/14 03:19:29;;;;;;;22.38;6.70;;;;;;;6.90;64.53;103616.31;4998585;28;115092;-68
2022/01/14 03:22:06;;;;;;;22.30;6.68;;;;;;;6.88;64.50;103612.75;4992655;28;115186;-69
2022/01/14 03:27:04;;;;;;;19.85;6.78;;;;;;;6.86;64.64;103614.50;4994009;28;123533;-69
2022/01/14 03:29:32;;;;;;;21.02;6.68;;;;;;;6.83;64.14;103616.19;5007300;28;112176;-69
2022/01/14 03:32:00;;;;;;;19.40;6.97;;;;;;;6.81;64.54;103617.91;4994066;28;113821;-69
2022/01/14 03:34:27;;;;;;;16.38;6.25;;;;;;;6.79;64.19;103622.28;4990227;28;122102;-69
2022/01/14 03:36:54;;;;;;;17.30;6.85;;;;;;;6.78;64.62;103620.50;4990695;28;123543;-69
2022/01/14 03:39:22;;;;;;;14.10;6.60;;;;;;;6.76;64.30;103619.59;4990854;28;113977;-69
2022/01/14 03:41:49;;;;;;;22.83;6.90;;;;;;;6.75;64.47;103607.28;4991881;28;114320;-69
2022/01/14 03:44:17;;;;;;;24.98;6.45;;;;;;;6.74;64.23;103605.53;5000631;28;123658;-69
2022/01/14 03:46:44;;;;;;;17.63;6.25;;;;;;;6.71;64.58;103594.94;4991334;28;123381;-69
2022/01/14 03:49:12;;;;;;;19.50;6.20;;;;;;;6.70;64.51;103606.31;4991655;28;114414;-69
2022/01/14 03:51:39;;;;;;;23.40;6.80;;;;;;;6.68;64.53;103615.94;4992738;28;114036;-69
2022/01/14 03:54:06;;;;;;;19.60;7.45;;;;;;;6.65;64.53;103615.91;4991816;28;123234;-69
2022/01/14 03:56:33;;;;;;;14.30;6.45;;;;;;;6.64;64.38;103603.59;4990285;28;123777;-69
2022/01/14 03:59:03;;;;;;;13.48;6.32;;;;;;;6.63;64.25;103599.22;4990266;28;114252;-69
2022/01/14 04:01:30;;;;;;;19.50;6.68;;;;;;;6.64;64.48;103600.97;4989231;28;114959;-69
2022/01/14 04:03:57;;;;;;;20.30;6.20;;;;;;;6.63;64.27;103593.94;4994987;28;124068;-69
2022/01/14 04:06:24;;;;;;;16.42;6.57;;;;;;;6.62;64.20;103600.06;4989310;28;123570;-69
2022/01/14 04:08:53;;;;;;;19.58;6.50;;;;;;;6.60;64.27;103607.94;4972087;28;114056;-69
2022/01/14 04:11:20;;;;;;;14.23;6.38;;;;;;;6.57;64.20;103607.00;4990609;28;115411;-69
2022/01/14 04:16:15;;;;;;;17.33;6.85;;;;;;;6.52;64.43;103598.16;4989468;28;124012;-69
2022/01/14 04:18:43;;;;;;;26.45;6.45;;;;;;;6.47;64.24;103600.69;4989536;28;112431;-69
2022/01/14 04:21:10;;;;;;;25.58;6.68;;;;;;;6.46;64.54;103592.75;4987624;28;114066;-69
2022/01/14 04:23:37;;;;;;;22.17;6.40;;;;;;;6.43;64.32;103586.59;4990061;28;123543;-69
2022/01/14 04:26:04;;;;;;;18.33;5.32;;;;;;;6.42;64.32;103586.56;4990312;28;123633;-68
2022/01/14 04:28:34;;;;;;;29.10;5.85;;;;;;;6.38;64.27;103590.88;4988687;28;113643;-68
2022/01/14 04:31:04;;;;;;;19.85;5.80;;;;;;;6.35;64.50;103589.97;4988544;28;114476;-69
2022/01/14 04:33:32;;;;;;;16.65;5.85;;;;;;;6.33;64.42;103589.94;4988754;28;124016;-69
2022/01/14 04:36:01;;;;;;;14.98;5.57;;;;;;;6.33;64.40;103591.66;4989206;28;124334;-69
2022/01/14 04:38:29;;;;;;;17.10;5.75;;;;;;;6.30;64.34;103581.97;4989299;28;115005;-69
2022/01/14 04:40:57;;;;;;;22.02;6.07;;;;;;;6.30;64.68;103584.63;4988990;28;115548;-69
2022/01/14 04:43:24;;;;;;;20.67;5.53;;;;;;;6.29;64.19;103582.84;4987668;28;123350;-69
2022/01/14 04:48:30;;;;;;;20.88;5.70;;;;;;;6.31;64.60;103578.50;4986158;28;114780;-69
2022/01/14 04:50:59;;;;;;;15.27;6.03;;;;;;;6.28;64.60;103573.19;4984759;28;112441;-69
2022/01/14 04:53:27;;;;;;;14.93;5.80;;;;;;;6.28;64.35;103573.19;4988714;28;124136;-69
2022/01/14 04:55:56;;;;;;;20.33;5.80;;;;;;;6.25;64.71;103562.59;4970715;28;124161;-69
2022/01/14 04:58:24;;;;;;;24.23;6.10;;;;;;;6.24;64.44;103566.09;4987368;28;115960;-69
2022/01/14 05:00:52;;;;;;;19.58;5.72;;;;;;;6.23;64.40;103575.75;4988833;28;115588;-69
2022/01/14 05:03:19;;;;;;;13.88;6.53;;;;;;;6.24;64.49;103563.47;4986920;28;124367;-69
2022/01/14 05:05:50;;;;;;;18.75;6.00;;;;;;;6.25;64.40;103562.59;4987229;28;124181;-69
2022/01/14 05:08:25;;;;;;;16.80;6.30;;;;;;;6.25;64.67;103552.06;4970806;28;113785;-69
2022/01/14 05:13:23;;;;;;;17.25;6.32;;;;;;;6.28;64.61;103557.38;4988850;28;124231;-69
2022/01/14 05:15:51;;;;;;;16.45;5.78;;;;;;;6.28;64.45;103552.13;4989337;28;123923;-69
2022/01/14 05:18:19;;;;;;;18.90;5.90;;;;;;;6.30;64.78;103549.53;4987977;28;114258;-69
2022/01/14 05:20:46;;;;;;;19.73;6.53;;;;;;;6.31;64.53;103546.00;4987342;28;113280;-69
2022/01/14 05:23:13;;;;;;;17.67;6.53;;;;;;;6.32;64.75;103553.94;5003165;28;123662;-69
2022/01/14 05:25:40;;;;;;;18.38;5.88;;;;;;;6.32;64.74;103553.94;4987887;28;123271;-69
2022/01/14 05:28:07;;;;;;;19.08;5.75;;;;;;;6.33;64.64;103555.72;4989497;28;114017;-69
2022/01/14 05:30:34;;;;;;;15.00;5.80;;;;;;;6.32;64.29;103548.69;4989219;28;114008;-70
2022/01/14 05:33:02;;;;;;;13.77;5.85;;;;;;;6.32;64.67;103548.69;5000318;28;122186;-69
2022/01/14 05:35:29;;;;;;;21.50;5.93;;;;;;;6.32;64.56;103553.94;4988317;28;123643;-69
2022/01/14 05:37:56;;;;;;;12.80;5.28;;;;;;;6.33;64.30;103561.00;5002161;28;113663;-69
2022/01/14 05:40:26;;;;;;;18.40;6.00;;;;;;;6.32;64.47;103564.47;4990197;28;114193;-68
2022/01/14 05:42:53;;;;;;;18.15;6.28;;;;;;;6.33;64.56;103557.44;4989791;28;123774;-69
2022/01/14 05:45:21;;;;;;;12.75;6.25;;;;;;;6.31;64.60;103562.72;4990630;28;122977;-70
2022/01/14 05:47:48;;;;;;;15.73;5.85;;;;;;;6.30;64.44;103555.66;4989682;28;115093;-68
2022/01/14 05:50:18;;;;;;;22.90;6.22;;;;;;;6.31;64.76;103546.91;4987414;28;114624;-69
2022/01/14 05:52:45;;;;;;;15.00;5.78;;;;;;;6.33;64.63;103560.06;4987309;28;126022;-70
2022/01/14 05:55:15;;;;;;;13.70;6.05;;;;;;;6.33;64.23;103563.63;4988512;28;124029;-69
2022/01/14 05:57:42;;;;;;;16.00;5.88;;;;;;;6.33;64.36;103554.81;4987542;28;113723;-69
2022/01/14 06:00:17;;;;;;;13.23;5.75;;;;;;;6.32;64.65;103559.19;4985680;28;113421;-68
2022/01/14 06:02:46;;;;;;;16.17;5.70;;;;;;;6.32;64.50;103564.47;4982552;28;125615;-69
2022/01/14 06:05:14;;;;;;;12.60;5.55;;;;;;;6.30;64.32;103566.19;4987731;28;123809;-69
2022/01/14 06:07:41;;;;;;;9.98;5.15;;;;;;;6.30;64.96;103571.44;5001263;28;113010;-69
2022/01/14 06:10:09;;;;;;;15.02;5.57;;;;;;;6.30;64.52;103566.19;4988017;28;113710;-69
2022/01/14 06:12:37;;;;;;;18.05;6.15;;;;;;;6.30;64.69;103575.84;4986010;28;123392;-69
2022/01/14 06:15:05;;;;;;;14.73;5.75;;;;;;;6.29;64.63;103577.59;4986433;28;123416;-68
2022/01/14 06:17:32;;;;;;;17.17;5.53;;;;;;;6.31;64.62;103583.78;4988642;28;114266;-69
2022/01/14 06:19:59;;;;;;;12.70;5.85;;;;;;;6.31;64.59;103578.50;4988918;28;114177;-69
2022/01/14 06:22:26;;;;;;;12.35;5.28;;;;;;;6.31;64.48;103562.72;4988462;28;123874;-68
2022/01/14 06:24:54;;;;;;;13.07;5.32;;;;;;;6.30;64.30;103568.81;4986478;28;124143;-69
2022/01/14 06:27:21;;;;;;;13.40;5.78;;;;;;;6.30;64.46;103566.19;4987604;28;114048;-69
2022/01/14 06:29:48;;;;;;;16.27;5.25;;;;;;;6.31;64.40;103557.44;4988595;28;113799;-70
2022/01/14 06:32:15;;;;;;;20.58;5.78;;;;;;;6.33;64.29;103566.25;4987024;28;123938;-69
2022/01/14 06:34:42;;;;;;;13.90;5.40;;;;;;;6.31;64.33;103560.09;4988156;28;124516;-68
2022/01/14 06:37:15;;;;;;;17.13;5.82;;;;;;;6.31;64.17;103557.44;4970625;28;114403;-69
2022/01/14 06:39:42;;;;;;;23.85;6.10;;;;;;;6.30;64.50;103560.94;4987246;28;115586;-70
2022/01/14 06:42:10;;;;;;;13.70;5.65;;;;;;;6.30;64.39;103560.94;4989973;28;123950;-70
2022/01/14 06:44:37;;;;;;;14.10;5.70;;;;;;;6.30;64.26;103550.41;4989678;28;122929;-69
2022/01/14 06:47:04;;;;;;;15.25;5.82;;;;;;;6.30;64.41;103555.66;4991505;28;114227;-70
2022/01/14 06:49:31;;;;;;;13.13;6.03;;;;;;;6.28;64.43;103552.13;4989842;28;114064;-70
2022/01/14 06:51:59;;;;;;;11.32;5.20;;;;;;;6.27;64.24;103550.34;4987039;28;124297;-70
2022/01/14 06:54:26;;;;;;;13.57;6.05;;;;;;;6.27;64.50;103550.34;4991240;28;123415;-70
2022/01/14 06:56:53;;;;;;;19.27;6.03;;;;;;;6.28;64.40;103552.13;4973397;28;113573;-68
2022/01/14 06:59:20;;;;;;;11.52;5.47;;;;;;;6.27;64.33;103560.88;4988930;28;113759;-70
2022/01/14 07:01:47;;;;;;;18.85;6.05;;;;;;;6.26;64.38;103558.22;4989023;28;123794;-69
2022/01/14 07:04:14;;;;;;;12.02;5.53;;;;;;;6.23;64.17;103559.03;4988757;28;124756;-68
2022/01/14 07:06:42;;;;;;;14.95;5.75;;;;;;;6.21;64.35;103564.28;4988135;28;115044;-70
2022/01/14 07:09:09;;;;;;;12.68;5.05;;;;;;;6.20;64.49;103557.25;4989662;28;112940;-70
2022/01/14 07:11:37;;;;;;;15.57;5.53;;;;;;;6.20;64.31;103554.63;4988515;28;122956;-70
2022/01/14 07:14:05;;;;;;;14.60;5.78;;;;;;;6.21;64.44;103555.50;4996650;28;123932;-70
2022/01/14 07:16:33;;;;;;;19.00;5.70;;;;;;;6.20;64.41;103553.75;4990816;28;114957;-69
2022/01/14 07:19:02;;;;;;;16.27;5.65;;;;;;;6.19;64.30;103557.22;5000914;28;113505;-70
2022/01/14 07:21:33;;;;;;;11.18;5.40;;;;;;;6.18;64.21;103552.84;4990197;28;123986;-69
2022/01/14 07:24:04;;;;;;;16.75;5.72;;;;;;;6.16;64.44;103551.91;4990475;28;123664;-69
2022/01/14 07:26:32;;;;;;;11.85;5.13;;;;;;;6.15;64.53;103568.56;4989943;28;114744;-70
2022/01/14 07:28:59;;;;;;;16.65;4.93;;;;;;;6.13;64.16;103565.03;4989818;28;113966;-71
2022/01/14 07:31:26;;;;;;;14.48;5.75;;;;;;;6.15;64.27;103555.41;4991280;28;123756;-70
2022/01/14 07:33:54;;;;;;;14.43;5.70;;;;;;;6.14;64.31;103561.50;4987925;28;123713;-70
2022/01/14 07:36:21;;;;;;;19.38;6.40;;;;;;;6.13;64.60;103562.41;5005349;28;113880;-70
2022/01/14 07:38:49;;;;;;;25.35;5.60;;;;;;;6.10;64.26;103563.22;4987042;28;114015;-70
2022/01/14 07:41:17;;;;;;;14.38;5.65;;;;;;;6.10;64.42;103562.31;4988325;28;122841;-70
2022/01/14 07:43:47;;;;;;;17.42;5.47;;;;;;;6.09;64.24;103555.31;4989345;28;124284;-69
2022/01/14 07:46:15;;;;;;;16.20;5.80;;;;;;;6.07;64.42;103546.50;4988740;28;114026;-70
2022/01/14 07:48:42;;;;;;;16.65;5.80;;;;;;;6.07;64.25;103552.66;4988351;28;112994;-70
2022/01/14 07:51:09;;;;;;;13.18;5.50;;;;;;;6.08;64.59;103548.25;4986542;28;124367;-70
2022/01/14 07:53:37;;;;;;;14.77;5.32;;;;;;;6.08;64.55;103548.25;4989711;28;123876;-72
2022/01/14 07:56:06;;;;;;;16.38;5.93;;;;;;;6.09;64.49;103555.31;4990359;28;114399;-70
2022/01/14 07:58:34;;;;;;;13.68;5.57;;;;;;;6.09;64.36;103565.84;4990744;28;113966;-69
2022/01/14 08:01:01;;;;;;;14.23;5.88;;;;;;;6.10;64.49;103552.69;5005659;28;123695;-70
2022/01/14 08:03:29;;;;;;;17.63;5.88;;;;;;;6.11;64.67;103549.19;4989948;28;122848;-70
2022/01/14 08:05:57;;;;;;;20.92;5.90;;;;;;;6.13;64.65;103557.13;4992458;28;114054;-70
2022/01/14 08:08:25;;;;;;;16.95;6.20;;;;;;;6.13;64.54;103549.22;4991322;28;112991;-70
2022/01/14 08:10:52;;;;;;;17.02;5.97;;;;;;;6.12;64.53;103565.88;4989731;28;124143;-70
2022/01/14 08:13:19;;;;;;;18.38;6.50;;;;;;;6.12;64.63;103571.13;4990312;28;124566;-70
2022/01/14 08:15:47;;;;;;;20.33;6.18;;;;;;;6.11;64.34;103570.25;4989145;28;115918;-69
2022/01/14 08:18:14;;;;;;;16.77;6.15;;;;;;;6.12;64.59;103565.88;4989525;28;114223;-69
2022/01/14 08:20:41;;;;;;;16.05;5.50;;;;;;;6.11;64.70;103570.25;4990219;28;124083;-70
2022/01/14 08:23:08;;;;;;;13.43;5.82;;;;;;;6.11;64.71;103548.31;4990665;28;124226;-70
2022/01/14 08:25:36;;;;;;;22.90;5.63;;;;;;;6.11;64.66;103564.13;4990391;28;114075;-70
2022/01/14 08:28:03;;;;;;;12.95;5.32;;;;;;;6.10;64.62;103554.44;4989147;28;114153;-70
2022/01/14 08:30:30;;;;;;;14.90;5.25;;;;;;;6.12;64.55;103555.34;4988157;28;123042;-70
2022/01/14 08:32:58;;;;;;;14.20;5.95;;;;;;;6.13;64.52;103578.19;4986320;28;124240;-70
2022/01/14 08:35:25;;;;;;;19.23;6.00;;;;;;;6.15;64.40;103563.31;4989979;28;114443;-69
2022/01/14 08:37:52;;;;;;;21.58;6.00;;;;;;;6.16;64.60;103567.69;4985504;28;114252;-70
2022/01/14 08:40:19;;;;;;;14.93;5.88;;;;;;;6.16;64.73;103578.22;4988479;28;125509;-69
2022/01/14 08:42:52;;;;;;;16.98;5.57;;;;;;;6.18;64.62;103579.16;4989208;28;124279;-70
2022/01/14 08:45:21;;;;;;;15.13;5.63;;;;;;;6.21;64.70;103566.03;4987948;28;114030;-70
2022/01/14 08:47:52;;;;;;;20.77;6.03;;;;;;;6.22;64.73;103562.56;4988602;28;113259;-70
2022/01/14 08:50:24;;;;;;;16.27;6.15;;;;;;;6.23;64.87;103553.78;4988490;28;123180;-70
2022/01/14 08:52:51;;;;;;;20.92;6.05;;;;;;;6.23;64.46;103569.56;4972168;28;122777;-70
2022/01/14 08:55:20;;;;;;;18.95;6.50;;;;;;;6.21;64.71;103566.03;4988770;28;113892;-70
2022/01/14 08:57:48;;;;;;;14.20;6.05;;;;;;;6.21;64.47;103566.03;4991017;28;113881;-70
2022/01/14 09:00:16;;;;;;;16.42;5.50;;;;;;;6.21;64.63;103582.69;4988346;28;122915;-69
2022/01/14 09:02:50;;;;;;;27.05;6.00;;;;;;;6.21;64.48;103581.81;4990341;28;123568;-70
2022/01/14 09:05:18;;;;;;;18.92;5.80;;;;;;;6.21;64.80;103574.81;4987757;28;114760;-70
2022/01/14 09:07:45;;;;;;;14.55;5.30;;;;;;;6.21;64.32;103576.56;4989792;28;115265;-70
2022/01/14 09:10:14;;;;;;;20.20;6.15;;;;;;;6.22;64.51;103588.88;4992295;28;124173;-70
2022/01/14 09:12:41;;;;;;;23.10;6.25;;;;;;;6.23;64.68;103585.38;4991551;28;122881;-70
2022/01/14 09:15:09;;;;;;;20.58;5.97;;;;;;;6.23;64.76;103590.63;4990542;28;114218;-70
2022/01/14 09:17:37;;;;;;;14.00;5.78;;;;;;;6.26;64.62;103590.69;4988055;28;113198;-70
2022/01/14 09:20:05;;;;;;;17.55;5.95;;;;;;;6.27;64.95;103587.19;4984848;28;123247;-69
2022/01/14 09:22:35;;;;;;;19.63;6.05;;;;;;;6.31;64.74;103589.03;4988310;28;123230;-69
2022/01/14 09:25:07;;;;;;;15.90;6.05;;;;;;;6.34;64.91;103594.31;4989725;28;113240;-70
2022/01/14 09:27:34;;;;;;;17.75;6.32;;;;;;;6.36;64.89;103587.34;4986891;28;113714;-70
2022/01/14 09:30:04;;;;;;;20.77;5.85;;;;;;;6.38;64.65;103590.88;4987165;28;123138;-70
2022/01/14 09:32:31;;;;;;;18.65;6.18;;;;;;;6.37;64.22;103599.66;4987575;28;122968;-69
2022/01/14 09:35:02;;;;;;;15.20;5.88;;;;;;;6.38;64.66;103604.03;4988273;28;115136;-69
2022/01/14 09:37:30;;;;;;;20.77;6.18;;;;;;;6.39;65.00;103587.41;4985169;28;113758;-69
2022/01/14 09:39:57;;;;;;;19.05;6.32;;;;;;;6.39;64.79;103592.66;4987240;28;123526;-69
2022/01/14 09:42:24;;;;;;;14.38;6.40;;;;;;;6.40;64.58;103589.19;4988499;28;123802;-69
2022/01/14 09:44:52;;;;;;;18.95;6.53;;;;;;;6.45;64.54;103591.00;4988047;28;113264;-69
2022/01/14 09:47:20;;;;;;;16.08;6.25;;;;;;;6.46;64.47;103598.03;4990226;28;114516;-69
2022/01/14 09:49:47;;;;;;;13.85;6.47;;;;;;;6.48;64.46;103601.56;4986480;28;123782;-69
2022/01/14 09:52:16;;;;;;;22.55;6.65;;;;;;;6.49;64.72;103595.47;4988577;28;124181;-69
2022/01/14 09:54:46;;;;;;;13.82;6.43;;;;;;;6.51;64.58;103596.38;4988149;28;115939;-70
2022/01/14 09:57:14;;;;;;;20.23;6.88;;;;;;;6.52;64.91;103595.53;4988759;28;114780;-70
2022/01/14 09:59:42;;;;;;;17.50;6.75;;;;;;;6.55;64.64;103595.56;4988380;28;124064;-70
2022/01/14 10:02:31;;;;;;;17.73;6.85;;;;;;;6.57;64.91;103607.00;4987082;28;123041;-70
2022/01/14 10:04:58;;;;;;;18.73;6.78;;;;;;;6.62;64.67;103605.31;4984753;28;114616;-69
2022/01/14 10:07:26;;;;;;;15.65;6.18;;;;;;;6.64;64.51;103603.59;4989367;28;113965;-70
2022/01/14 10:10:00;;;;;;;17.25;6.80;;;;;;;6.65;64.51;103615.91;5004104;28;124039;-70
2022/01/14 10:12:33;;;;;;;16.35;6.72;;;;;;;6.66;64.62;103611.53;4989488;28;123922;-70
2022/01/14 10:15:09;;;;;;;14.73;6.85;;;;;;;6.67;64.70;103608.94;4989262;28;115128;-69
2022/01/14 10:17:41;;;;;;;16.45;6.85;;;;;;;6.69;64.63;103607.19;4990991;28;113836;-69
2022/01/14 10:20:14;;;;;;;20.92;7.55;;;;;;;6.70;64.46;103606.31;4985113;28;123450;-70
2022/01/14 10:22:44;;;;;;;15.25;6.72;;;;;;;6.73;64.69;103598.47;4989448;28;124423;-69
2022/01/14 10:25:17;;;;;;;19.38;7.45;;;;;;;6.74;64.79;103602.91;4991766;28;114482;-69
2022/01/14 10:27:45;;;;;;;18.80;7.53;;;;;;;6.77;64.92;103605.56;4992711;28;114774;-69
2022/01/14 10:30:23;;;;;;;17.38;7.53;;;;;;;6.78;64.53;103601.16;4998281;28;124329;-69
2022/01/14 10:33:01;;;;;;;16.80;7.35;;;;;;;6.78;64.39;103609.97;4993145;28;121549;-69
2022/01/14 10:35:30;;;;;;;16.85;7.22;;;;;;;6.80;64.72;103597.72;4993413;28;114674;-69
2022/01/14 10:38:04;;;;;;;16.08;7.07;;;;;;;6.83;64.63;103597.75;4993218;28;113701;-69
2022/01/14 10:40:35;;;;;;;18.77;7.68;;;;;;;6.88;64.56;103586.41;4991662;28;124715;-69
2022/01/14 10:43:07;;;;;;;14.30;7.15;;;;;;;6.92;64.73;103588.22;4989909;28;123008;-69
2022/01/14 10:45:53;;;;;;;16.88;7.45;;;;;;;6.97;64.81;103591.81;4990612;28;115086;-69
2022/01/14 10:48:29;;;;;;;18.55;8.05;;;;;;;7.00;64.62;103581.31;4990645;28;114378;-69
2022/01/14 10:51:02;;;;;;;18.77;7.93;;;;;;;7.01;64.52;103573.44;4987469;28;123869;-69
2022/01/14 10:53:33;;;;;;;17.92;8.05;;;;;;;7.02;64.49;103569.03;4987706;28;124915;-69
2022/01/14 10:56:08;;;;;;;16.00;7.40;;;;;;;7.03;64.59;103576.09;4991073;28;114274;-69
2022/01/14 10:58:37;;;;;;;;;;;;;;;7.03;64.55;103576.09;4990618;28;112570;-69
2022/01/14 11:01:08;;;;;;;17.75;6.82;;;;;;;7.05;64.56;103569.09;4991076;28;124739;-69
2022/01/14 11:03:52;;;;;;;18.35;7.38;;;;;;;7.06;64.45;103559.41;4987703;28;124203;-70
2022/01/14 11:06:19;;;;;;;17.70;7.07;;;;;;;7.08;64.57;103558.56;4989024;28;113501;-70
2022/01/14 11:08:49;;;;;;;19.40;8.15;;;;;;;7.10;64.70;103559.50;4987264;28;113311;-70
2022/01/14 11:11:16;;;;;;;18.15;8.20;;;;;;;7.11;64.60;103561.25;4985306;28;124453;-69
2022/01/14 11:13:47;;;;;;;17.63;7.95;;;;;;;7.13;64.94;103559.53;4990325;28;123679;-69
2022/01/14 11:16:14;;;;;;;18.27;8.30;;;;;;;7.18;64.84;103564.88;4990835;28;113952;-69
2022/01/14 11:18:41;;;;;;;21.05;8.43;;;;;;;7.21;64.95;103554.34;4991287;28;114014;-70
2022/01/14 11:23:54;;;;;;;;;;;;;;;7.26;64.51;103549.16;4987696;28;125005;-70
2022/01/14 11:26:27;;;;;;;19.00;7.32;;;;;;;7.31;64.96;103555.34;4990223;28;114357;-70
2022/01/14 11:28:56;;;;;;;18.33;7.82;;;;;;;7.33;64.54;103558.91;4989668;28;112948;-70
2022/01/14 11:31:36;;;;;;;23.35;8.27;;;;;;;7.36;64.56;103558.94;4989302;28;123880;-70
2022/01/14 11:34:09;;;;;;;19.60;8.65;;;;;;;7.39;64.89;103559.84;4986218;28;124173;-70
2022/01/14 11:36:52;;;;;;;20.35;8.32;;;;;;;7.42;64.80;103559.00;4990706;28;115230;-69
2022/01/14 11:39:21;;;;;;;17.20;8.40;;;;;;;7.46;64.84;103560.81;4988828;28;113575;-70
2022/01/14 11:41:54;;;;;;;20.75;8.35;;;;;;;7.48;64.53;103559.09;4988247;28;123759;-70
2022/01/14 11:47:36;;;;;;;20.25;8.18;;;;;;;7.52;64.55;103563.53;4990732;28;113883;-69
2022/01/14 11:50:27;;;;;;;19.40;8.48;;;;;;;7.54;64.85;103564.44;4987234;28;114028;-70
2022/01/14 11:52:56;;;;;;;21.23;9.27;;;;;;;7.56;64.74;103557.41;4989086;28;124020;-70
2022/01/14 11:55:23;;;;;;;20.63;9.15;;;;;;;7.58;64.63;103549.53;4989839;28;124060;-70
2022/01/14 11:57:53;;;;;;;21.40;8.82;;;;;;;7.60;64.49;103548.66;4990364;28;113914;-70
2022/01/14 12:00:41;;;;;;;20.20;9.18;;;;;;;7.65;64.83;103555.72;4990851;28;113824;-70